Flinterborg — PHPH — position and weather

sailwx.info

Track history (hours):
 
Tides and Currents Weather Stations Pressure Air Temp Water Temp Dewpoint Dewpoint Depression Visibility Wind Speed Wind Dir Waves Ship Positions

Flinterborg

Last reported at 2015-Apr-02 23:04 UTC. Time now 2015-Apr-19 04:34 UTC.
Position N 55°03' E 015°52'.
Warning: this ship's position is 16 days out of date.

Length 111 m; draft 3.8 m.

Type: Ship. MMSI: 245433000.

Date/timePositionNaut miles runAvg speedWind from/ knotsBaromVisibWave heightAir tempDewpointWater temp
2015-Apr-02 23:04N 55°03' E 015°52'612.3
2015-Apr-02 22:33N 54°58' E 015°45'6212.4
2015-Apr-02 17:33N 54°12' E 014°33'1312.7
2015-Apr-02 16:33N 54°02' E 014°19'9 9.1
2015-Apr-02 15:33N 53°53' E 014°16'7 7.1
2015-Apr-02 14:34N 53°47' E 014°22'1211.5
2015-Apr-02 13:33N 53°38' E 014°35'10 9.8
2015-Apr-02 12:33N 53°28' E 014°36'2 2.2
2015-Apr-02 11:29N 53°26' E 014°35'0 0.0
2015-Apr-02 10:31N 53°26' E 014°35'0 0.0
2015-Apr-02 09:31N 53°26' E 014°35'0 0.0
2015-Apr-02 08:34N 53°26' E 014°35'0 0.0
2015-Apr-02 07:33N 53°26' E 014°35'0 0.0
2015-Apr-02 06:33N 53°26' E 014°35'0 0.0
2015-Apr-02 05:32N 53°26' E 014°35'0 0.0
2015-Apr-02 04:32N 53°26' E 014°35'0 0.0
2015-Apr-02 03:31N 53°26' E 014°35'0 0.0
2015-Apr-02 02:31N 53°26' E 014°35'0 0.0
2015-Apr-02 01:33N 53°26' E 014°35'0 0.0
2015-Apr-02 00:33N 53°26' E 014°35'0 0.0
2015-Apr-01 23:33N 53°26' E 014°35'0 0.0
2015-Apr-01 22:29N 53°26' E 014°35'0 0.0
2015-Apr-01 21:32N 53°26' E 014°35'0 0.0
2015-Apr-01 20:31N 53°26' E 014°35'0 0.1
2015-Apr-01 19:31N 53°26' E 014°35'0 0.0
2015-Apr-01 18:33N 53°26' E 014°35'0 0.0
2015-Apr-01 17:33N 53°26' E 014°35'0 0.0
2015-Apr-01 16:33N 53°26' E 014°35'0 0.0
2015-Apr-01 15:32N 53°26' E 014°35'0 0.0
2015-Apr-01 14:32N 53°26' E 014°35'0 0.0
2015-Apr-01 13:31N 53°26' E 014°35'0 0.0
2015-Apr-01 12:31N 53°26' E 014°35'0 0.0
2015-Apr-01 11:33N 53°26' E 014°35'0 0.0
2015-Apr-01 10:33N 53°26' E 014°35'0 0.0
2015-Apr-01 09:29N 53°26' E 014°35'0 0.0
2015-Apr-01 08:32N 53°26' E 014°35'0 0.0
2015-Apr-01 07:32N 53°26' E 014°35'0 0.0
2015-Apr-01 06:31N 53°26' E 014°35'0 0.0
2015-Apr-01 05:31N 53°26' E 014°35'0 0.0
2015-Apr-01 04:33N 53°26' E 014°35'0 0.0
2015-Apr-01 03:33N 53°26' E 014°35'0 0.0
2015-Apr-01 02:32N 53°26' E 014°35'0 0.0
2015-Apr-01 01:32N 53°26' E 014°35'0 0.0
2015-Apr-01 00:32N 53°26' E 014°35'0 0.0
2015-Mar-31 23:31N 53°26' E 014°35'0 0.0
2015-Mar-31 22:31N 53°26' E 014°35'0 0.0
2015-Mar-31 21:33N 53°26' E 014°35'0 0.0
2015-Mar-31 20:33N 53°26' E 014°35'0 0.0
2015-Mar-31 19:32N 53°26' E 014°35'0 0.0
2015-Mar-31 18:32N 53°26' E 014°35'0 0.0
2015-Mar-31 17:29N 53°26' E 014°35'0 0.0
2015-Mar-31 16:31N 53°26' E 014°35'0 0.0
2015-Mar-31 15:31N 53°26' E 014°35'0 0.0
2015-Mar-31 14:33N 53°26' E 014°35'0 0.0
2015-Mar-31 13:33N 53°26' E 014°35'0 0.0
2015-Mar-31 12:32N 53°26' E 014°35'0 0.0
2015-Mar-31 11:32N 53°26' E 014°35'0 0.0
2015-Mar-31 10:32N 53°26' E 014°35'0 0.0
2015-Mar-31 09:31N 53°26' E 014°35'0 0.0
2015-Mar-31 08:31N 53°26' E 014°35'0 0.0
2015-Mar-31 07:33N 53°26' E 014°35'0 0.0
2015-Mar-31 06:33N 53°26' E 014°35'0 0.0
2015-Mar-31 05:32N 53°26' E 014°35'0 0.0
2015-Mar-31 04:32N 53°26' E 014°35'0 0.0
2015-Mar-31 03:31N 53°26' E 014°35'0 0.0
2015-Mar-31 02:31N 53°26' E 014°35'0 0.0
2015-Mar-31 01:31N 53°26' E 014°35'0 0.0
2015-Mar-31 00:33N 53°26' E 014°35'0 0.0
2015-Mar-30 23:33N 53°26' E 014°35'0 0.0
2015-Mar-30 22:32N 53°26' E 014°35'0 0.0
2015-Mar-30 21:32N 53°26' E 014°35'0 0.0
2015-Mar-30 20:31N 53°26' E 014°35'0 0.0
2015-Mar-30 19:31N 53°26' E 014°35'0 0.0
2015-Mar-30 18:33N 53°26' E 014°35'6 6.2
2015-Mar-30 17:33N 53°32' E 014°38'1110.5
2015-Mar-30 16:33N 53°41' E 014°30'1111.0
2015-Mar-30 15:33N 53°50' E 014°18'8 8.2
2015-Mar-30 14:33N 53°58' E 014°16'1110.6
2015-Mar-30 13:33N 54°07' E 014°26'1010.3
2015-Mar-30 12:33N 54°15' E 014°37'32 9.5
2015-Mar-30 09:10N 54°42' E 015°08'6 8.5
2015-Mar-30 08:24N 54°47' E 015°14'7 8.2
2015-Mar-30 07:32N 54°53' E 015°21'9 9.7
2015-Mar-30 06:33N 55°02' E 015°28'1211.6
2015-Mar-30 05:33N 55°12' E 015°38'1211.7
2015-Mar-30 04:33N 55°22' E 015°49'  
2015-Mar-26 09:32N 59°35' E 021°14'1412.8
2015-Mar-26 08:25N 59°34' E 021°42'5012.8
2015-Mar-26 04:32N 59°39' E 023°20'1312.9
2015-Mar-26 03:33N 59°42' E 023°44'7612.5
2015-Mar-25 21:28N 60°05' E 026°09'1112.5
2015-Mar-25 20:33N 60°14' E 026°24'1312.7
2015-Mar-25 19:33N 60°22' E 026°42'7 6.3
2015-Mar-25 18:28N 60°25' E 026°55'0 0.0
2015-Mar-25 17:31N 60°25' E 026°55'0 0.0
2015-Mar-25 16:33N 60°25' E 026°55'0 0.0
2015-Mar-25 15:33N 60°25' E 026°55'0 0.0
2015-Mar-25 14:32N 60°25' E 026°55'0 0.0
2015-Mar-25 13:32N 60°25' E 026°55'0 0.0
2015-Mar-25 12:31N 60°25' E 026°55'0 0.0
2015-Mar-25 11:31N 60°25' E 026°55'0 0.0
2015-Mar-25 10:31N 60°25' E 026°55'0 0.0
2015-Mar-25 09:33N 60°25' E 026°55'0 0.0
2015-Mar-25 08:33N 60°25' E 026°55'0 0.0
2015-Mar-25 07:32N 60°25' E 026°55'0 0.0
2015-Mar-25 06:32N 60°25' E 026°55'1 0.9
2015-Mar-25 05:33N 60°25' E 026°54'1212.3
2015-Mar-25 04:33N 60°18' E 026°33'1212.3
2015-Mar-25 03:33N 60°08' E 026°18'5112.0
2015-Mar-24 23:18N 59°46' E 024°46'912.5
2015-Mar-24 22:33N 59°44' E 024°28'18 9.0
2015-Mar-24 20:33N 59°58' E 024°04'  
Track history (hours):
 
Tides and Currents Weather Stations Pressure Air Temp Water Temp Dewpoint Dewpoint Depression Visibility Wind Speed Wind Dir Waves Ship Positions

Flinterborg

Last reported at 2015-Apr-02 23:04 UTC. Time now 2015-Apr-19 04:34 UTC.
Position N 55°03' E 015°52'.
Warning: this ship's position is 16 days out of date.

Length 111 m; draft 3.8 m.

Type: Ship. MMSI: 245433000.

Date/timePositionNaut miles runAvg speedWind from/ knotsBaromVisibWave heightAir tempDewpointWater temp
2015-Apr-02 23:04N 55°03' E 015°52'612.3
2015-Apr-02 22:33N 54°58' E 015°45'6212.4
2015-Apr-02 17:33N 54°12' E 014°33'1312.7
2015-Apr-02 16:33N 54°02' E 014°19'9 9.1
2015-Apr-02 15:33N 53°53' E 014°16'7 7.1
2015-Apr-02 14:34N 53°47' E 014°22'1211.5
2015-Apr-02 13:33N 53°38' E 014°35'10 9.8
2015-Apr-02 12:33N 53°28' E 014°36'2 2.2
2015-Apr-02 11:29N 53°26' E 014°35'0 0.0
2015-Apr-02 10:31N 53°26' E 014°35'0 0.0
2015-Apr-02 09:31N 53°26' E 014°35'0 0.0
2015-Apr-02 08:34N 53°26' E 014°35'0 0.0
2015-Apr-02 07:33N 53°26' E 014°35'0 0.0
2015-Apr-02 06:33N 53°26' E 014°35'0 0.0
2015-Apr-02 05:32N 53°26' E 014°35'0 0.0
2015-Apr-02 04:32N 53°26' E 014°35'0 0.0
2015-Apr-02 03:31N 53°26' E 014°35'0 0.0
2015-Apr-02 02:31N 53°26' E 014°35'0 0.0
2015-Apr-02 01:33N 53°26' E 014°35'0 0.0
2015-Apr-02 00:33N 53°26' E 014°35'0 0.0
2015-Apr-01 23:33N 53°26' E 014°35'0 0.0
2015-Apr-01 22:29N 53°26' E 014°35'0 0.0
2015-Apr-01 21:32N 53°26' E 014°35'0 0.0
2015-Apr-01 20:31N 53°26' E 014°35'0 0.1
2015-Apr-01 19:31N 53°26' E 014°35'0 0.0
2015-Apr-01 18:33N 53°26' E 014°35'0 0.0
2015-Apr-01 17:33N 53°26' E 014°35'0 0.0
2015-Apr-01 16:33N 53°26' E 014°35'0 0.0
2015-Apr-01 15:32N 53°26' E 014°35'0 0.0
2015-Apr-01 14:32N 53°26' E 014°35'0 0.0
2015-Apr-01 13:31N 53°26' E 014°35'0 0.0
2015-Apr-01 12:31N 53°26' E 014°35'0 0.0
2015-Apr-01 11:33N 53°26' E 014°35'0 0.0
2015-Apr-01 10:33N 53°26' E 014°35'0 0.0
2015-Apr-01 09:29N 53°26' E 014°35'0 0.0
2015-Apr-01 08:32N 53°26' E 014°35'0 0.0
2015-Apr-01 07:32N 53°26' E 014°35'0 0.0
2015-Apr-01 06:31N 53°26' E 014°35'0 0.0
2015-Apr-01 05:31N 53°26' E 014°35'0 0.0
2015-Apr-01 04:33N 53°26' E 014°35'0 0.0
2015-Apr-01 03:33N 53°26' E 014°35'0 0.0
2015-Apr-01 02:32N 53°26' E 014°35'0 0.0
2015-Apr-01 01:32N 53°26' E 014°35'0 0.0
2015-Apr-01 00:32N 53°26' E 014°35'0 0.0
2015-Mar-31 23:31N 53°26' E 014°35'0 0.0
2015-Mar-31 22:31N 53°26' E 014°35'0 0.0
2015-Mar-31 21:33N 53°26' E 014°35'0 0.0
2015-Mar-31 20:33N 53°26' E 014°35'0 0.0
2015-Mar-31 19:32N 53°26' E 014°35'0 0.0
2015-Mar-31 18:32N 53°26' E 014°35'0 0.0
2015-Mar-31 17:29N 53°26' E 014°35'0 0.0
2015-Mar-31 16:31N 53°26' E 014°35'0 0.0
2015-Mar-31 15:31N 53°26' E 014°35'0 0.0
2015-Mar-31 14:33N 53°26' E 014°35'0 0.0
2015-Mar-31 13:33N 53°26' E 014°35'0 0.0
2015-Mar-31 12:32N 53°26' E 014°35'0 0.0
2015-Mar-31 11:32N 53°26' E 014°35'0 0.0
2015-Mar-31 10:32N 53°26' E 014°35'0 0.0
2015-Mar-31 09:31N 53°26' E 014°35'0 0.0
2015-Mar-31 08:31N 53°26' E 014°35'0 0.0
2015-Mar-31 07:33N 53°26' E 014°35'0 0.0
2015-Mar-31 06:33N 53°26' E 014°35'0 0.0
2015-Mar-31 05:32N 53°26' E 014°35'0 0.0
2015-Mar-31 04:32N 53°26' E 014°35'0 0.0
2015-Mar-31 03:31N 53°26' E 014°35'0 0.0
2015-Mar-31 02:31N 53°26' E 014°35'0 0.0
2015-Mar-31 01:31N 53°26' E 014°35'0 0.0
2015-Mar-31 00:33N 53°26' E 014°35'0 0.0
2015-Mar-30 23:33N 53°26' E 014°35'0 0.0
2015-Mar-30 22:32N 53°26' E 014°35'0 0.0
2015-Mar-30 21:32N 53°26' E 014°35'0 0.0
2015-Mar-30 20:31N 53°26' E 014°35'0 0.0
2015-Mar-30 19:31N 53°26' E 014°35'0 0.0
2015-Mar-30 18:33N 53°26' E 014°35'6 6.2
2015-Mar-30 17:33N 53°32' E 014°38'1110.5
2015-Mar-30 16:33N 53°41' E 014°30'1111.0
2015-Mar-30 15:33N 53°50' E 014°18'8 8.2
2015-Mar-30 14:33N 53°58' E 014°16'1110.6
2015-Mar-30 13:33N 54°07' E 014°26'1010.3
2015-Mar-30 12:33N 54°15' E 014°37'32 9.5
2015-Mar-30 09:10N 54°42' E 015°08'6 8.5
2015-Mar-30 08:24N 54°47' E 015°14'7 8.2
2015-Mar-30 07:32N 54°53' E 015°21'9 9.7
2015-Mar-30 06:33N 55°02' E 015°28'1211.6
2015-Mar-30 05:33N 55°12' E 015°38'1211.7
2015-Mar-30 04:33N 55°22' E 015°49'  
2015-Mar-26 09:32N 59°35' E 021°14'1412.8
2015-Mar-26 08:25N 59°34' E 021°42'5012.8
2015-Mar-26 04:32N 59°39' E 023°20'1312.9
2015-Mar-26 03:33N 59°42' E 023°44'7612.5
2015-Mar-25 21:28N 60°05' E 026°09'1112.5
2015-Mar-25 20:33N 60°14' E 026°24'1312.7
2015-Mar-25 19:33N 60°22' E 026°42'7 6.3
2015-Mar-25 18:28N 60°25' E 026°55'0 0.0
2015-Mar-25 17:31N 60°25' E 026°55'0 0.0
2015-Mar-25 16:33N 60°25' E 026°55'0 0.0
2015-Mar-25 15:33N 60°25' E 026°55'0 0.0
2015-Mar-25 14:32N 60°25' E 026°55'0 0.0
2015-Mar-25 13:32N 60°25' E 026°55'0 0.0
2015-Mar-25 12:31N 60°25' E 026°55'0 0.0
2015-Mar-25 11:31N 60°25' E 026°55'0 0.0
2015-Mar-25 10:31N 60°25' E 026°55'0 0.0
2015-Mar-25 09:33N 60°25' E 026°55'0 0.0
2015-Mar-25 08:33N 60°25' E 026°55'0 0.0
2015-Mar-25 07:32N 60°25' E 026°55'0 0.0
2015-Mar-25 06:32N 60°25' E 026°55'1 0.9
2015-Mar-25 05:33N 60°25' E 026°54'1212.3
2015-Mar-25 04:33N 60°18' E 026°33'1212.3
2015-Mar-25 03:33N 60°08' E 026°18'5112.0
2015-Mar-24 23:18N 59°46' E 024°46'912.5
2015-Mar-24 22:33N 59°44' E 024°28'18 9.0
2015-Mar-24 20:33N 59°58' E 024°04'  

Dump ship's entire track history